sensor_id;sensor_type;location;lat;lon;timestamp;temperature;humidity
2603;DHT22;1311;47.966;7.958;2023-03-30T00:00:25;16.60;1.00
2603;DHT22;1311;47.966;7.958;2023-03-30T00:02:53;16.60;1.00
2603;DHT22;1311;47.966;7.958;2023-03-30T00:05:19;16.60;1.00
2603;DHT22;1311;47.966;7.958;2023-03-30T00:07:52;16.60;1.00
2603;DHT22;1311;47.966;7.958;2023-03-30T00:10:19;16.60;1.00
2603;DHT22;1311;47.966;7.958;2023-03-30T00:12:48;16.60;1.00
2603;DHT22;1311;47.966;7.958;2023-03-30T00:15:18;16.60;1.00
2603;DHT22;1311;47.966;7.958;2023-03-30T00:17:47;16.50;10.60
2603;DHT22;1311;47.966;7.958;2023-03-30T00:20:15;16.40;25.00
2603;DHT22;1311;47.966;7.958;2023-03-30T00:22:44;16.40;37.30
2603;DHT22;1311;47.966;7.958;2023-03-30T00:25:14;16.30;43.30
2603;DHT22;1311;47.966;7.958;2023-03-30T00:27:41;16.30;43.90
2603;DHT22;1311;47.966;7.958;2023-03-30T00:30:10;16.30;39.80
2603;DHT22;1311;47.966;7.958;2023-03-30T00:32:38;16.30;36.10
2603;DHT22;1311;47.966;7.958;2023-03-30T00:35:06;16.40;28.50
2603;DHT22;1311;47.966;7.958;2023-03-30T00:37:33;16.50;18.60
2603;DHT22;1311;47.966;7.958;2023-03-30T00:40:01;16.50;9.00
2603;DHT22;1311;47.966;7.958;2023-03-30T00:42:32;16.50;4.70
2603;DHT22;1311;47.966;7.958;2023-03-30T00:45:16;16.70;1.00
2603;DHT22;1311;47.966;7.958;2023-03-30T00:47:46;16.70;3.20
2603;DHT22;1311;47.966;7.958;2023-03-30T00:50:16;16.60;11.40
2603;DHT22;1311;47.966;7.958;2023-03-30T00:52:48;16.60;24.80
2603;DHT22;1311;47.966;7.958;2023-03-30T00:55:18;16.60;40.20
2603;DHT22;1311;47.966;7.958;2023-03-30T00:57:47;16.60;58.90
2603;DHT22;1311;47.966;7.958;2023-03-30T01:00:16;16.50;93.10
2603;DHT22;1311;47.966;7.958;2023-03-30T01:02:46;16.40;99.90
2603;DHT22;1311;47.966;7.958;2023-03-30T01:05:13;16.20;99.90
2603;DHT22;1311;47.966;7.958;2023-03-30T01:07:41;16.10;99.90
2603;DHT22;1311;47.966;7.958;2023-03-30T01:10:11;15.90;99.90
2603;DHT22;1311;47.966;7.958;2023-03-30T01:12:38;15.70;99.90
2603;DHT22;1311;47.966;7.958;2023-03-30T01:15:07;15.50;99.90
2603;DHT22;1311;47.966;7.958;2023-03-30T01:17:40;15.40;99.90
2603;DHT22;1311;47.966;7.958;2023-03-30T01:20:39;15.30;99.90
2603;DHT22;1311;47.966;7.958;2023-03-30T01:23:31;15.00;99.90
2603;DHT22;1311;47.966;7.958;2023-03-30T01:26:28;14.80;99.90
2603;DHT22;1311;47.966;7.958;2023-03-30T01:29:04;14.50;99.90
2603;DHT22;1311;47.966;7.958;2023-03-30T01:31:58;14.40;99.90
2603;DHT22;1311;47.966;7.958;2023-03-30T01:34:44;14.30;99.90
2603;DHT22;1311;47.966;7.958;2023-03-30T01:37:48;14.30;99.90
2603;DHT22;1311;47.966;7.958;2023-03-30T01:40:22;14.20;99.90
2603;DHT22;1311;47.966;7.958;2023-03-30T01:42:57;14.10;99.90
2603;DHT22;1311;47.966;7.958;2023-03-30T01:45:34;14.10;99.90
2603;DHT22;1311;47.966;7.958;2023-03-30T01:48:09;14.10;99.90
2603;DHT22;1311;47.966;7.958;2023-03-30T01:50:40;14.00;99.90
2603;DHT22;1311;47.966;7.958;2023-03-30T01:53:13;13.90;99.90
2603;DHT22;1311;47.966;7.958;2023-03-30T01:55:45;13.80;99.90
2603;DHT22;1311;47.966;7.958;2023-03-30T01:58:17;13.80;99.90
2603;DHT22;1311;47.966;7.958;2023-03-30T02:00:47;13.70;99.90
2603;DHT22;1311;47.966;7.958;2023-03-30T02:03:18;13.60;99.90
2603;DHT22;1311;47.966;7.958;2023-03-30T02:05:48;13.60;99.90
2603;DHT22;1311;47.966;7.958;2023-03-30T02:08:18;13.50;99.90
2603;DHT22;1311;47.966;7.958;2023-03-30T02:10:48;13.40;99.90
2603;DHT22;1311;47.966;7.958;2023-03-30T02:13:17;13.30;99.90
2603;DHT22;1311;47.966;7.958;2023-03-30T02:15:47;13.20;99.90
2603;DHT22;1311;47.966;7.958;2023-03-30T02:18:15;13.10;99.90
2603;DHT22;1311;47.966;7.958;2023-03-30T02:20:43;13.10;99.90
2603;DHT22;1311;47.966;7.958;2023-03-30T02:23:11;13.00;99.90
2603;DHT22;1311;47.966;7.958;2023-03-30T02:25:38;13.00;99.90
2603;DHT22;1311;47.966;7.958;2023-03-30T02:28:07;13.00;99.90
2603;DHT22;1311;47.966;7.958;2023-03-30T02:30:37;12.90;99.90
2603;DHT22;1311;47.966;7.958;2023-03-30T02:33:05;12.90;99.90
2603;DHT22;1311;47.966;7.958;2023-03-30T02:35:49;12.90;99.90
2603;DHT22;1311;47.966;7.958;2023-03-30T02:38:32;12.80;99.90
2603;DHT22;1311;47.966;7.958;2023-03-30T02:41:07;12.80;99.90
2603;DHT22;1311;47.966;7.958;2023-03-30T02:43:44;12.70;99.90
2603;DHT22;1311;47.966;7.958;2023-03-30T02:46:38;12.60;99.90
2603;DHT22;1311;47.966;7.958;2023-03-30T02:49:13;12.50;99.90
2603;DHT22;1311;47.966;7.958;2023-03-30T02:51:45;12.60;99.90
2603;DHT22;1311;47.966;7.958;2023-03-30T02:54:22;12.60;99.90
2603;DHT22;1311;47.966;7.958;2023-03-30T02:56:57;12.60;99.90
2603;DHT22;1311;47.966;7.958;2023-03-30T02:59:33;12.60;99.90
2603;DHT22;1311;47.966;7.958;2023-03-30T03:02:04;12.60;99.90
2603;DHT22;1311;47.966;7.958;2023-03-30T03:04:33;12.70;99.90
2603;DHT22;1311;47.966;7.958;2023-03-30T03:07:00;12.70;99.90
2603;DHT22;1311;47.966;7.958;2023-03-30T03:09:28;12.70;99.90
2603;DHT22;1311;47.966;7.958;2023-03-30T03:11:55;12.70;99.90
2603;DHT22;1311;47.966;7.958;2023-03-30T03:14:21;12.70;99.90
2603;DHT22;1311;47.966;7.958;2023-03-30T03:16:52;12.60;99.90
2603;DHT22;1311;47.966;7.958;2023-03-30T03:19:19;12.60;99.90
2603;DHT22;1311;47.966;7.958;2023-03-30T03:21:46;12.60;99.90
2603;DHT22;1311;47.966;7.958;2023-03-30T03:24:12;12.50;99.90
2603;DHT22;1311;47.966;7.958;2023-03-30T03:26:41;12.60;99.90
2603;DHT22;1311;47.966;7.958;2023-03-30T03:29:08;12.60;99.90
2603;DHT22;1311;47.966;7.958;2023-03-30T03:31:35;12.60;99.90
2603;DHT22;1311;47.966;7.958;2023-03-30T03:34:04;12.60;99.90
2603;DHT22;1311;47.966;7.958;2023-03-30T03:36:31;12.60;99.90
2603;DHT22;1311;47.966;7.958;2023-03-30T03:38:58;12.60;99.90
2603;DHT22;1311;47.966;7.958;2023-03-30T03:41:24;12.60;99.90
2603;DHT22;1311;47.966;7.958;2023-03-30T03:43:51;12.60;99.90
2603;DHT22;1311;47.966;7.958;2023-03-30T03:46:18;12.60;99.90
2603;DHT22;1311;47.966;7.958;2023-03-30T03:48:45;12.60;99.90
2603;DHT22;1311;47.966;7.958;2023-03-30T03:51:13;12.60;99.90
2603;DHT22;1311;47.966;7.958;2023-03-30T03:53:40;12.60;99.90
2603;DHT22;1311;47.966;7.958;2023-03-30T03:56:07;12.70;99.90
2603;DHT22;1311;47.966;7.958;2023-03-30T03:58:34;12.80;99.90
2603;DHT22;1311;47.966;7.958;2023-03-30T04:01:01;12.90;99.90
2603;DHT22;1311;47.966;7.958;2023-03-30T04:03:28;12.90;99.90
2603;DHT22;1311;47.966;7.958;2023-03-30T04:05:58;13.00;99.90
2603;DHT22;1311;47.966;7.958;2023-03-30T04:08:27;12.80;99.90
2603;DHT22;1311;47.966;7.958;2023-03-30T04:10:54;12.70;99.90
2603;DHT22;1311;47.966;7.958;2023-03-30T04:16:15;12.70;99.90
2603;DHT22;1311;47.966;7.958;2023-03-30T04:18:42;12.70;99.90
2603;DHT22;1311;47.966;7.958;2023-03-30T04:21:09;12.70;99.90
2603;DHT22;1311;47.966;7.958;2023-03-30T04:23:38;12.70;99.90
2603;DHT22;1311;47.966;7.958;2023-03-30T04:26:10;12.70;99.90
2603;DHT22;1311;47.966;7.958;2023-03-30T04:28:38;12.70;99.90
2603;DHT22;1311;47.966;7.958;2023-03-30T04:31:06;12.60;99.90
2603;DHT22;1311;47.966;7.958;2023-03-30T04:33:35;12.70;99.90
2603;DHT22;1311;47.966;7.958;2023-03-30T04:36:06;12.60;99.90
2603;DHT22;1311;47.966;7.958;2023-03-30T04:38:32;12.60;99.90
2603;DHT22;1311;47.966;7.958;2023-03-30T04:41:02;12.60;99.90
2603;DHT22;1311;47.966;7.958;2023-03-30T04:43:29;12.60;99.90
2603;DHT22;1311;47.966;7.958;2023-03-30T04:45:56;12.60;99.90
2603;DHT22;1311;47.966;7.958;2023-03-30T04:48:23;12.60;99.90
2603;DHT22;1311;47.966;7.958;2023-03-30T04:50:50;12.60;99.90
2603;DHT22;1311;47.966;7.958;2023-03-30T04:53:18;12.60;99.90
2603;DHT22;1311;47.966;7.958;2023-03-30T04:55:49;12.70;99.90
2603;DHT22;1311;47.966;7.958;2023-03-30T04:58:17;12.70;99.90
2603;DHT22;1311;47.966;7.958;2023-03-30T05:00:44;12.60;99.90
2603;DHT22;1311;47.966;7.958;2023-03-30T05:03:11;12.60;99.90
2603;DHT22;1311;47.966;7.958;2023-03-30T05:05:37;12.60;99.90
2603;DHT22;1311;47.966;7.958;2023-03-30T05:08:04;12.60;99.90
2603;DHT22;1311;47.966;7.958;2023-03-30T05:10:31;12.60;99.90
2603;DHT22;1311;47.966;7.958;2023-03-30T05:12:58;12.60;99.90
2603;DHT22;1311;47.966;7.958;2023-03-30T05:15:26;12.60;99.90
2603;DHT22;1311;47.966;7.958;2023-03-30T05:17:52;12.70;99.90
2603;DHT22;1311;47.966;7.958;2023-03-30T05:20:19;12.70;99.90
2603;DHT22;1311;47.966;7.958;2023-03-30T05:22:46;12.80;99.90
2603;DHT22;1311;47.966;7.958;2023-03-30T05:25:14;12.90;99.90
2603;DHT22;1311;47.966;7.958;2023-03-30T05:27:40;12.90;99.90
2603;DHT22;1311;47.966;7.958;2023-03-30T05:30:08;12.80;99.90
2603;DHT22;1311;47.966;7.958;2023-03-30T05:32:36;12.80;99.90
2603;DHT22;1311;47.966;7.958;2023-03-30T05:35:03;12.80;99.90
2603;DHT22;1311;47.966;7.958;2023-03-30T05:37:30;12.80;99.90
2603;DHT22;1311;47.966;7.958;2023-03-30T05:39:57;12.90;99.90
2603;DHT22;1311;47.966;7.958;2023-03-30T05:42:24;12.90;99.90
2603;DHT22;1311;47.966;7.958;2023-03-30T05:44:51;13.00;99.90
2603;DHT22;1311;47.966;7.958;2023-03-30T05:47:18;13.20;99.90
2603;DHT22;1311;47.966;7.958;2023-03-30T05:49:47;13.20;99.90
2603;DHT22;1311;47.966;7.958;2023-03-30T05:52:14;13.10;99.90
2603;DHT22;1311;47.966;7.958;2023-03-30T05:54:41;13.10;99.90
2603;DHT22;1311;47.966;7.958;2023-03-30T05:57:08;13.10;99.90
2603;DHT22;1311;47.966;7.958;2023-03-30T05:59:36;13.10;99.90
2603;DHT22;1311;47.966;7.958;2023-03-30T06:02:02;13.00;99.90
2603;DHT22;1311;47.966;7.958;2023-03-30T06:04:31;13.00;99.90
2603;DHT22;1311;47.966;7.958;2023-03-30T06:06:59;13.00;99.90
2603;DHT22;1311;47.966;7.958;2023-03-30T06:09:26;12.90;99.90
2603;DHT22;1311;47.966;7.958;2023-03-30T06:11:53;12.90;99.90
2603;DHT22;1311;47.966;7.958;2023-03-30T06:14:20;12.90;99.90
2603;DHT22;1311;47.966;7.958;2023-03-30T06:16:46;12.90;99.90
2603;DHT22;1311;47.966;7.958;2023-03-30T06:19:13;12.90;99.90
2603;DHT22;1311;47.966;7.958;2023-03-30T06:21:40;13.10;99.90
2603;DHT22;1311;47.966;7.958;2023-03-30T06:24:08;13.20;99.90
2603;DHT22;1311;47.966;7.958;2023-03-30T06:26:35;13.30;99.90
2603;DHT22;1311;47.966;7.958;2023-03-30T06:29:02;13.80;99.90
2603;DHT22;1311;47.966;7.958;2023-03-30T06:31:29;14.10;99.90
2603;DHT22;1311;47.966;7.958;2023-03-30T06:33:56;14.40;99.90
2603;DHT22;1311;47.966;7.958;2023-03-30T06:36:23;14.90;99.90
2603;DHT22;1311;47.966;7.958;2023-03-30T06:38:49;14.90;99.90
2603;DHT22;1311;47.966;7.958;2023-03-30T06:41:17;15.00;99.90
2603;DHT22;1311;47.966;7.958;2023-03-30T06:43:44;15.10;99.90
2603;DHT22;1311;47.966;7.958;2023-03-30T06:46:11;15.10;99.90
2603;DHT22;1311;47.966;7.958;2023-03-30T06:48:39;15.30;99.90
2603;DHT22;1311;47.966;7.958;2023-03-30T06:51:06;15.30;99.90
2603;DHT22;1311;47.966;7.958;2023-03-30T06:53:33;15.40;99.90
2603;DHT22;1311;47.966;7.958;2023-03-30T06:56:00;15.30;99.90
2603;DHT22;1311;47.966;7.958;2023-03-30T06:58:29;15.40;99.90
2603;DHT22;1311;47.966;7.958;2023-03-30T07:00:56;15.40;99.90
2603;DHT22;1311;47.966;7.958;2023-03-30T07:03:23;15.50;99.90
2603;DHT22;1311;47.966;7.958;2023-03-30T07:05:51;15.50;99.90
2603;DHT22;1311;47.966;7.958;2023-03-30T07:08:18;15.50;99.90
2603;DHT22;1311;47.966;7.958;2023-03-30T07:10:46;15.50;99.90
2603;DHT22;1311;47.966;7.958;2023-03-30T07:13:13;15.40;99.90
2603;DHT22;1311;47.966;7.958;2023-03-30T07:15:42;15.40;99.90
2603;DHT22;1311;47.966;7.958;2023-03-30T07:18:09;15.50;99.90
2603;DHT22;1311;47.966;7.958;2023-03-30T07:20:36;15.50;99.90
2603;DHT22;1311;47.966;7.958;2023-03-30T07:23:03;15.60;99.90
2603;DHT22;1311;47.966;7.958;2023-03-30T07:25:29;15.50;99.90
2603;DHT22;1311;47.966;7.958;2023-03-30T07:27:57;15.60;99.90
2603;DHT22;1311;47.966;7.958;2023-03-30T07:30:23;15.50;99.90
2603;DHT22;1311;47.966;7.958;2023-03-30T07:32:51;15.40;99.90
2603;DHT22;1311;47.966;7.958;2023-03-30T07:35:18;15.50;99.90
2603;DHT22;1311;47.966;7.958;2023-03-30T07:37:45;15.60;99.90
2603;DHT22;1311;47.966;7.958;2023-03-30T07:40:12;15.50;99.90
2603;DHT22;1311;47.966;7.958;2023-03-30T07:42:39;15.30;99.90
2603;DHT22;1311;47.966;7.958;2023-03-30T07:45:07;15.20;99.90
2603;DHT22;1311;47.966;7.958;2023-03-30T07:47:34;15.00;99.90
2603;DHT22;1311;47.966;7.958;2023-03-30T07:50:06;14.90;99.90
2603;DHT22;1311;47.966;7.958;2023-03-30T07:52:33;14.70;99.90
2603;DHT22;1311;47.966;7.958;2023-03-30T07:54:59;14.60;99.90
2603;DHT22;1311;47.966;7.958;2023-03-30T07:57:26;14.50;99.90
2603;DHT22;1311;47.966;7.958;2023-03-30T07:59:53;14.40;99.90
2603;DHT22;1311;47.966;7.958;2023-03-30T08:02:20;14.30;99.90
2603;DHT22;1311;47.966;7.958;2023-03-30T08:04:46;14.40;99.90
2603;DHT22;1311;47.966;7.958;2023-03-30T08:07:15;14.50;99.90
2603;DHT22;1311;47.966;7.958;2023-03-30T08:09:42;14.40;99.90
2603;DHT22;1311;47.966;7.958;2023-03-30T08:12:10;14.40;99.90
2603;DHT22;1311;47.966;7.958;2023-03-30T08:14:37;14.50;99.90
2603;DHT22;1311;47.966;7.958;2023-03-30T08:17:03;14.40;99.90
2603;DHT22;1311;47.966;7.958;2023-03-30T08:19:30;14.40;99.90
2603;DHT22;1311;47.966;7.958;2023-03-30T08:21:57;14.30;99.90
2603;DHT22;1311;47.966;7.958;2023-03-30T08:24:27;14.30;99.90
2603;DHT22;1311;47.966;7.958;2023-03-30T08:26:54;14.30;99.90
2603;DHT22;1311;47.966;7.958;2023-03-30T08:29:21;14.40;99.90
2603;DHT22;1311;47.966;7.958;2023-03-30T08:31:49;14.20;99.90
2603;DHT22;1311;47.966;7.958;2023-03-30T08:34:16;14.00;99.90
2603;DHT22;1311;47.966;7.958;2023-03-30T08:36:43;13.80;99.90
2603;DHT22;1311;47.966;7.958;2023-03-30T08:39:10;13.60;99.90
2603;DHT22;1311;47.966;7.958;2023-03-30T08:41:57;13.50;99.90
2603;DHT22;1311;47.966;7.958;2023-03-30T08:44:31;13.40;99.90
2603;DHT22;1311;47.966;7.958;2023-03-30T08:47:00;13.30;99.90
2603;DHT22;1311;47.966;7.958;2023-03-30T08:49:30;13.20;99.90
2603;DHT22;1311;47.966;7.958;2023-03-30T08:52:00;13.10;99.90
2603;DHT22;1311;47.966;7.958;2023-03-30T08:54:29;13.10;99.90
2603;DHT22;1311;47.966;7.958;2023-03-30T08:57:04;13.00;99.90
2603;DHT22;1311;47.966;7.958;2023-03-30T08:59:39;13.00;99.90
2603;DHT22;1311;47.966;7.958;2023-03-30T09:02:14;13.00;99.90
2603;DHT22;1311;47.966;7.958;2023-03-30T09:04:50;13.00;99.90
2603;DHT22;1311;47.966;7.958;2023-03-30T09:07:23;12.90;99.90
2603;DHT22;1311;47.966;7.958;2023-03-30T09:09:50;13.10;99.90
2603;DHT22;1311;47.966;7.958;2023-03-30T09:12:23;13.30;99.90
2603;DHT22;1311;47.966;7.958;2023-03-30T09:14:57;13.30;99.90
2603;DHT22;1311;47.966;7.958;2023-03-30T09:17:29;13.20;99.90
2603;DHT22;1311;47.966;7.958;2023-03-30T09:20:01;13.10;99.90
2603;DHT22;1311;47.966;7.958;2023-03-30T09:22:37;13.10;99.90
2603;DHT22;1311;47.966;7.958;2023-03-30T09:25:12;13.00;99.90
2603;DHT22;1311;47.966;7.958;2023-03-30T09:27:46;12.90;99.90
2603;DHT22;1311;47.966;7.958;2023-03-30T09:30:20;12.90;99.90
2603;DHT22;1311;47.966;7.958;2023-03-30T09:32:56;13.20;99.90
2603;DHT22;1311;47.966;7.958;2023-03-30T09:35:27;13.60;99.90
2603;DHT22;1311;47.966;7.958;2023-03-30T09:37:56;13.70;99.90
2603;DHT22;1311;47.966;7.958;2023-03-30T09:40:33;13.50;99.90
2603;DHT22;1311;47.966;7.958;2023-03-30T09:43:09;13.40;99.90
2603;DHT22;1311;47.966;7.958;2023-03-30T09:45:40;13.30;99.90
2603;DHT22;1311;47.966;7.958;2023-03-30T09:48:08;13.10;99.90
2603;DHT22;1311;47.966;7.958;2023-03-30T09:50:38;13.00;99.90
2603;DHT22;1311;47.966;7.958;2023-03-30T09:53:13;13.10;99.90
2603;DHT22;1311;47.966;7.958;2023-03-30T09:55:54;13.00;99.90
2603;DHT22;1311;47.966;7.958;2023-03-30T09:58:28;13.00;99.90
2603;DHT22;1311;47.966;7.958;2023-03-30T10:01:04;13.00;99.90
2603;DHT22;1311;47.966;7.958;2023-03-30T10:03:32;13.20;99.90
2603;DHT22;1311;47.966;7.958;2023-03-30T10:06:01;13.30;99.90
2603;DHT22;1311;47.966;7.958;2023-03-30T10:08:29;13.40;99.90
2603;DHT22;1311;47.966;7.958;2023-03-30T10:10:57;13.60;99.90
2603;DHT22;1311;47.966;7.958;2023-03-30T10:13:30;13.80;99.90
2603;DHT22;1311;47.966;7.958;2023-03-30T10:16:02;14.00;99.90
2603;DHT22;1311;47.966;7.958;2023-03-30T10:18:36;14.10;99.90
2603;DHT22;1311;47.966;7.958;2023-03-30T10:21:13;14.10;99.90
2603;DHT22;1311;47.966;7.958;2023-03-30T10:23:44;14.00;99.90
2603;DHT22;1311;47.966;7.958;2023-03-30T10:26:12;14.00;99.90
2603;DHT22;1311;47.966;7.958;2023-03-30T10:28:52;14.00;99.90
2603;DHT22;1311;47.966;7.958;2023-03-30T10:31:19;14.00;99.90
2603;DHT22;1311;47.966;7.958;2023-03-30T10:33:47;13.90;99.90
2603;DHT22;1311;47.966;7.958;2023-03-30T10:36:15;13.70;99.90
2603;DHT22;1311;47.966;7.958;2023-03-30T10:38:43;13.60;99.90
2603;DHT22;1311;47.966;7.958;2023-03-30T10:41:12;13.60;99.90
2603;DHT22;1311;47.966;7.958;2023-03-30T10:43:40;13.60;99.90
2603;DHT22;1311;47.966;7.958;2023-03-30T10:46:12;13.60;99.90
2603;DHT22;1311;47.966;7.958;2023-03-30T10:48:47;13.50;99.90
2603;DHT22;1311;47.966;7.958;2023-03-30T10:51:28;13.40;99.90
2603;DHT22;1311;47.966;7.958;2023-03-30T10:54:05;13.40;99.90
2603;DHT22;1311;47.966;7.958;2023-03-30T10:56:38;13.40;99.90
2603;DHT22;1311;47.966;7.958;2023-03-30T10:59:31;13.40;99.90
2603;DHT22;1311;47.966;7.958;2023-03-30T11:02:21;13.60;99.90
2603;DHT22;1311;47.966;7.958;2023-03-30T11:04:57;13.50;99.90
2603;DHT22;1311;47.966;7.958;2023-03-30T11:07:28;13.40;99.90
2603;DHT22;1311;47.966;7.958;2023-03-30T11:09:58;13.40;99.90
2603;DHT22;1311;47.966;7.958;2023-03-30T11:12:34;13.40;99.90
2603;DHT22;1311;47.966;7.958;2023-03-30T11:15:08;13.40;99.90
2603;DHT22;1311;47.966;7.958;2023-03-30T11:17:46;13.20;99.90
2603;DHT22;1311;47.966;7.958;2023-03-30T11:20:18;13.10;99.90
2603;DHT22;1311;47.966;7.958;2023-03-30T11:22:52;13.20;99.90
2603;DHT22;1311;47.966;7.958;2023-03-30T11:25:22;13.10;99.90
2603;DHT22;1311;47.966;7.958;2023-03-30T11:27:53;13.10;99.90
2603;DHT22;1311;47.966;7.958;2023-03-30T11:30:25;13.00;99.90
2603;DHT22;1311;47.966;7.958;2023-03-30T11:32:56;12.90;99.90
2603;DHT22;1311;47.966;7.958;2023-03-30T11:35:29;12.80;99.90
2603;DHT22;1311;47.966;7.958;2023-03-30T11:38:02;12.70;99.90
2603;DHT22;1311;47.966;7.958;2023-03-30T11:40:34;12.70;99.90
2603;DHT22;1311;47.966;7.958;2023-03-30T11:43:04;12.80;99.90
2603;DHT22;1311;47.966;7.958;2023-03-30T11:45:40;12.90;99.90
2603;DHT22;1311;47.966;7.958;2023-03-30T11:48:28;13.20;99.90
2603;DHT22;1311;47.966;7.958;2023-03-30T11:51:07;13.40;99.90
2603;DHT22;1311;47.966;7.958;2023-03-30T11:53:44;13.80;99.90
2603;DHT22;1311;47.966;7.958;2023-03-30T11:56:20;13.70;99.90
2603;DHT22;1311;47.966;7.958;2023-03-30T11:59:01;13.60;99.90
2603;DHT22;1311;47.966;7.958;2023-03-30T12:01:41;13.70;99.90
2603;DHT22;1311;47.966;7.958;2023-03-30T12:04:14;14.00;99.90
2603;DHT22;1311;47.966;7.958;2023-03-30T12:06:47;14.30;99.90
2603;DHT22;1311;47.966;7.958;2023-03-30T12:09:26;14.70;99.90
2603;DHT22;1311;47.966;7.958;2023-03-30T12:11:59;15.10;99.90
2603;DHT22;1311;47.966;7.958;2023-03-30T12:14:48;15.50;99.90
2603;DHT22;1311;47.966;7.958;2023-03-30T12:17:29;15.70;99.90
2603;DHT22;1311;47.966;7.958;2023-03-30T12:20:04;15.80;99.90
2603;DHT22;1311;47.966;7.958;2023-03-30T12:22:38;15.60;99.90
2603;DHT22;1311;47.966;7.958;2023-03-30T12:25:23;15.90;99.90
2603;DHT22;1311;47.966;7.958;2023-03-30T12:27:57;16.10;99.90
2603;DHT22;1311;47.966;7.958;2023-03-30T12:30:25;16.40;99.90
2603;DHT22;1311;47.966;7.958;2023-03-30T12:32:59;16.60;99.90
2603;DHT22;1311;47.966;7.958;2023-03-30T12:35:51;16.40;99.90
2603;DHT22;1311;47.966;7.958;2023-03-30T12:38:20;16.30;99.90
2603;DHT22;1311;47.966;7.958;2023-03-30T12:40:54;16.00;99.90
2603;DHT22;1311;47.966;7.958;2023-03-30T12:43:26;15.50;99.90
2603;DHT22;1311;47.966;7.958;2023-03-30T12:46:00;15.20;99.90
2603;DHT22;1311;47.966;7.958;2023-03-30T12:48:35;15.30;99.90
2603;DHT22;1311;47.966;7.958;2023-03-30T12:51:13;15.40;99.90
2603;DHT22;1311;47.966;7.958;2023-03-30T12:53:55;15.40;99.90
2603;DHT22;1311;47.966;7.958;2023-03-30T12:56:31;15.00;99.90
2603;DHT22;1311;47.966;7.958;2023-03-30T13:02:18;15.60;99.90
2603;DHT22;1311;47.966;7.958;2023-03-30T13:04:50;16.30;99.90
2603;DHT22;1311;47.966;7.958;2023-03-30T13:07:21;16.10;99.90
2603;DHT22;1311;47.966;7.958;2023-03-30T13:09:55;15.90;99.90
2603;DHT22;1311;47.966;7.958;2023-03-30T13:12:37;15.70;99.90
2603;DHT22;1311;47.966;7.958;2023-03-30T13:15:29;16.20;99.90
2603;DHT22;1311;47.966;7.958;2023-03-30T13:17:58;16.60;99.90
2603;DHT22;1311;47.966;7.958;2023-03-30T13:20:31;16.90;99.90
2603;DHT22;1311;47.966;7.958;2023-03-30T13:23:05;17.30;99.90
2603;DHT22;1311;47.966;7.958;2023-03-30T13:25:59;17.00;99.90
2603;DHT22;1311;47.966;7.958;2023-03-30T13:28:36;16.90;99.90
2603;DHT22;1311;47.966;7.958;2023-03-30T13:31:20;17.00;99.90
2603;DHT22;1311;47.966;7.958;2023-03-30T13:33:54;17.20;99.90
2603;DHT22;1311;47.966;7.958;2023-03-30T13:36:25;16.80;99.90
2603;DHT22;1311;47.966;7.958;2023-03-30T13:39:03;16.60;99.90
2603;DHT22;1311;47.966;7.958;2023-03-30T13:41:39;16.50;99.90
2603;DHT22;1311;47.966;7.958;2023-03-30T13:44:35;16.20;99.90
2603;DHT22;1311;47.966;7.958;2023-03-30T13:47:18;16.10;99.90
2603;DHT22;1311;47.966;7.958;2023-03-30T13:49:56;16.00;99.90
2603;DHT22;1311;47.966;7.958;2023-03-30T13:52:27;16.10;99.90
2603;DHT22;1311;47.966;7.958;2023-03-30T13:54:57;16.20;99.90
2603;DHT22;1311;47.966;7.958;2023-03-30T13:57:30;16.30;99.90
2603;DHT22;1311;47.966;7.958;2023-03-30T14:00:03;16.40;99.90
2603;DHT22;1311;47.966;7.958;2023-03-30T14:02:32;16.20;99.90
2603;DHT22;1311;47.966;7.958;2023-03-30T14:05:11;16.00;99.90
2603;DHT22;1311;47.966;7.958;2023-03-30T14:07:40;15.80;99.90
2603;DHT22;1311;47.966;7.958;2023-03-30T14:10:14;15.70;99.90
2603;DHT22;1311;47.966;7.958;2023-03-30T14:12:41;15.70;99.90
2603;DHT22;1311;47.966;7.958;2023-03-30T14:15:16;15.70;99.90
2603;DHT22;1311;47.966;7.958;2023-03-30T14:17:46;15.80;99.90
2603;DHT22;1311;47.966;7.958;2023-03-30T14:20:20;15.80;99.90
2603;DHT22;1311;47.966;7.958;2023-03-30T14:22:53;16.00;99.90
2603;DHT22;1311;47.966;7.958;2023-03-30T14:25:26;16.30;99.90
2603;DHT22;1311;47.966;7.958;2023-03-30T14:27:55;16.40;99.90
2603;DHT22;1311;47.966;7.958;2023-03-30T14:30:24;16.30;99.90
2603;DHT22;1311;47.966;7.958;2023-03-30T14:33:09;16.30;99.90
2603;DHT22;1311;47.966;7.958;2023-03-30T14:35:40;16.30;99.90
2603;DHT22;1311;47.966;7.958;2023-03-30T14:38:12;15.90;99.90
2603;DHT22;1311;47.966;7.958;2023-03-30T14:40:41;15.60;99.90
2603;DHT22;1311;47.966;7.958;2023-03-30T14:43:12;15.20;99.90
2603;DHT22;1311;47.966;7.958;2023-03-30T14:45:40;14.40;99.90
2603;DHT22;1311;47.966;7.958;2023-03-30T14:48:15;14.00;99.90
2603;DHT22;1311;47.966;7.958;2023-03-30T14:50:44;13.70;99.90
2603;DHT22;1311;47.966;7.958;2023-03-30T14:53:11;13.40;99.90
2603;DHT22;1311;47.966;7.958;2023-03-30T14:55:38;13.30;99.90
2603;DHT22;1311;47.966;7.958;2023-03-30T14:58:09;13.10;99.90
2603;DHT22;1311;47.966;7.958;2023-03-30T15:00:39;13.00;99.90
2603;DHT22;1311;47.966;7.958;2023-03-30T15:03:08;13.00;99.90
2603;DHT22;1311;47.966;7.958;2023-03-30T15:05:37;13.10;99.90
2603;DHT22;1311;47.966;7.958;2023-03-30T15:08:10;13.00;99.90
2603;DHT22;1311;47.966;7.958;2023-03-30T15:10:44;13.20;99.90
2603;DHT22;1311;47.966;7.958;2023-03-30T15:13:19;13.50;99.90
2603;DHT22;1311;47.966;7.958;2023-03-30T15:15:48;13.60;99.90
2603;DHT22;1311;47.966;7.958;2023-03-30T15:18:20;13.50;99.90
2603;DHT22;1311;47.966;7.958;2023-03-30T15:20:47;13.40;99.90
2603;DHT22;1311;47.966;7.958;2023-03-30T15:23:15;13.20;99.90
2603;DHT22;1311;47.966;7.958;2023-03-30T15:25:42;13.20;99.90
2603;DHT22;1311;47.966;7.958;2023-03-30T15:28:14;13.20;99.90
2603;DHT22;1311;47.966;7.958;2023-03-30T15:30:45;13.80;99.90
2603;DHT22;1311;47.966;7.958;2023-03-30T15:33:22;14.00;99.90
2603;DHT22;1311;47.966;7.958;2023-03-30T15:35:51;13.90;99.90
2603;DHT22;1311;47.966;7.958;2023-03-30T15:38:26;13.70;99.90
2603;DHT22;1311;47.966;7.958;2023-03-30T15:40:54;13.50;99.90
2603;DHT22;1311;47.966;7.958;2023-03-30T15:43:23;13.30;99.90
2603;DHT22;1311;47.966;7.958;2023-03-30T15:45:53;13.00;99.90
2603;DHT22;1311;47.966;7.958;2023-03-30T15:48:23;13.20;99.90
2603;DHT22;1311;47.966;7.958;2023-03-30T15:51:01;13.30;99.90
2603;DHT22;1311;47.966;7.958;2023-03-30T15:53:35;13.10;99.90
2603;DHT22;1311;47.966;7.958;2023-03-30T15:56:08;13.00;99.90
2603;DHT22;1311;47.966;7.958;2023-03-30T15:58:38;12.70;99.90
2603;DHT22;1311;47.966;7.958;2023-03-30T16:01:07;12.70;99.90
2603;DHT22;1311;47.966;7.958;2023-03-30T16:03:37;12.60;99.90
2603;DHT22;1311;47.966;7.958;2023-03-30T16:06:10;12.90;99.90
2603;DHT22;1311;47.966;7.958;2023-03-30T16:08:38;13.00;99.90
2603;DHT22;1311;47.966;7.958;2023-03-30T16:11:08;13.10;99.90
2603;DHT22;1311;47.966;7.958;2023-03-30T16:13:40;13.10;99.90
2603;DHT22;1311;47.966;7.958;2023-03-30T16:16:07;13.40;99.90
2603;DHT22;1311;47.966;7.958;2023-03-30T16:18:35;13.20;99.90
2603;DHT22;1311;47.966;7.958;2023-03-30T16:21:02;13.00;99.90
2603;DHT22;1311;47.966;7.958;2023-03-30T16:23:29;12.80;99.90
2603;DHT22;1311;47.966;7.958;2023-03-30T16:25:57;12.70;99.90
2603;DHT22;1311;47.966;7.958;2023-03-30T16:28:24;12.60;99.90
2603;DHT22;1311;47.966;7.958;2023-03-30T16:30:54;12.60;99.90
2603;DHT22;1311;47.966;7.958;2023-03-30T16:33:23;12.60;99.90